Time;durP1;ratioP1;P1;durP2;ratioP2;P2;SDS_P1;SDS_P2;PMS_P1;PMS_P2;Temp;Humidity;BMP_temperature;BMP_pressure;BME280_temperature;BME280_humidity;BME280_pressure;Samples;Min_cycle;Max_cycle;Signal;HPM_P1;HPM_P2
2022/08/24 00:01:55;;;;;;;;;9.25;8.25;;;;;24.77;54.81;100866.00;5045595;28;45485;-61
2022/08/24 00:04:25;;;;;;;;;7.00;7.00;;;;;24.75;54.99;100863.47;5013067;28;45389;-62
2022/08/24 00:07:01;;;;;;;;;7.25;7.25;;;;;24.74;54.76;100864.44;5027740;28;46272;-63
2022/08/24 00:09:32;;;;;;;;;8.00;7.00;;;;;24.73;54.57;100861.91;5062120;28;45389;-64
2022/08/24 00:12:05;;;;;;;;;7.75;7.75;;;;;24.69;54.36;100862.19;5028123;28;45520;-61
2022/08/24 00:14:42;;;;;;;;;6.50;6.50;;;;;24.71;54.36;100867.41;5079388;28;45517;-63
2022/08/24 00:17:12;;;;;;;;;6.00;6.00;;;;;24.71;54.46;100867.41;5029999;28;46253;-62
2022/08/24 00:19:45;;;;;;;;;7.40;7.40;;;;;24.72;54.45;100861.06;5065410;28;45523;-62
2022/08/24 00:22:15;;;;;;;;;7.00;7.00;;;;;24.69;54.23;100866.72;5083309;28;44833;-62
2022/08/24 00:24:48;;;;;;;;;4.00;4.00;;;;;24.69;54.28;100851.44;5031262;28;45746;-61
2022/08/24 00:27:21;;;;;;;;;5.00;5.00;;;;;24.70;54.23;100863.03;5065781;28;47909;-62
2022/08/24 00:29:54;;;;;;;;;3.60;3.60;;;;;24.67;54.71;100858.78;5065256;28;45506;-63
2022/08/24 00:32:24;;;;;;;;;5.50;5.50;;;;;24.68;54.87;100865.84;5061240;28;45435;-62
2022/08/24 00:34:54;;;;;;;;;4.25;4.25;;;;;24.65;55.06;100860.75;5064880;28;45508;-63
2022/08/24 00:37:23;;;;;;;;;4.75;4.75;;;;;24.67;55.26;100863.31;5081158;28;46216;-60
2022/08/24 00:40:02;;;;;;;;;4.60;4.60;;;;;24.64;55.22;100856.38;5082283;28;45356;-63
2022/08/24 00:42:30;;;;;;;;;5.20;5.20;;;;;24.62;55.26;100858.34;5065273;28;45499;-63
2022/08/24 00:45:02;;;;;;;;;6.75;5.50;;;;;24.62;55.20;100861.03;5082547;28;45625;-61
2022/08/24 00:47:47;;;;;;;;;4.50;4.50;;;;;24.62;55.57;100861.03;5064534;28;45485;-61
2022/08/24 00:50:24;;;;;;;;;3.80;3.80;;;;;24.59;55.54;100852.41;5049879;28;45489;-62
2022/08/24 00:53:06;;;;;;;;;4.25;4.25;;;;;24.60;55.52;100856.78;5030817;28;45551;-61
2022/08/24 00:55:48;;;;;;;;;4.00;4.00;;;;;24.59;55.66;100852.41;5064979;28;45484;-62
2022/08/24 00:58:20;;;;;;;;;3.75;3.75;;;;;24.61;55.58;100853.09;5047856;28;45576;-62
2022/08/24 01:00:51;;;;;;;;;3.25;3.25;;;;;24.59;55.60;100861.31;5064392;28;45602;-63
2022/08/24 01:03:21;;;;;;;;;4.00;4.00;;;;;24.60;55.79;100857.63;5082671;28;45517;-61
2022/08/24 01:06:00;;;;;;;;;3.50;3.50;;;;;24.60;55.82;100857.63;5065022;28;45586;-64
2022/08/24 01:11:28;;;;;;;;;4.00;4.00;;;;;24.57;55.74;100854.38;5082903;27;45537;-62
2022/08/24 01:14:01;;;;;;;;;4.00;3.00;;;;;24.57;55.93;100857.91;5066126;28;45518;-60
2022/08/24 01:19:39;;;;;;;;;3.25;3.25;;;;;24.56;55.71;100858.06;5082537;28;45487;-63
2022/08/24 01:22:33;;;;;;;;;4.00;4.00;;;;;24.56;55.88;100850.00;5030713;28;45547;-62
2022/08/24 01:25:04;;;;;;;;;2.40;2.40;;;;;24.55;56.10;100851.81;5064635;28;45494;-63
2022/08/24 01:27:43;;;;;;;;;3.00;3.00;;;;;24.54;55.89;100854.66;5063424;28;45629;-64
2022/08/24 01:30:15;;;;;;;;;2.75;2.75;;;;;24.53;55.94;100851.13;5059005;28;47766;-63
2022/08/24 01:33:00;;;;;;;;;2.00;2.00;;;;;24.51;56.00;100857.63;5030134;28;45713;-62
2022/08/24 01:35:33;;;;;;;;;3.40;3.40;;;;;24.52;56.26;100851.25;5064833;28;45427;-64
2022/08/24 01:38:07;;;;;;;;;2.75;2.75;;;;;24.52;56.37;100860.16;5045595;28;45563;-64
2022/08/24 01:40:42;;;;;;;;;2.00;2.00;;;;;24.48;56.48;100855.22;5064249;28;45534;-61
2022/08/24 01:43:17;;;;;;;;;4.00;4.00;;;;;24.46;56.60;100864.25;5064469;28;45729;-62
2022/08/24 01:45:50;;;;;;;;;1.00;1.00;;;;;24.45;56.57;100867.09;5064482;28;45526;-64
2022/08/24 01:48:26;;;;;;;;;4.00;4.00;;;;;24.43;56.72;100855.59;5063785;28;45479;-62
2022/08/24 01:51:00;;;;;;;;;3.75;3.75;;;;;24.43;56.62;100863.66;5082393;28;45505;-64
2022/08/24 01:53:34;;;;;;;;;4.00;4.00;;;;;24.41;56.50;100866.47;5080263;28;45533;-60
2022/08/24 01:56:02;;;;;;;;;5.20;5.20;;;;;24.40;56.65;100861.25;5064245;28;45482;-61
2022/08/24 01:58:41;;;;;;;;;3.25;3.00;;;;;24.39;56.54;100867.59;5046355;28;45636;-64
2022/08/24 02:01:18;;;;;;;;;3.00;3.00;;;;;24.38;56.73;100864.06;5078304;28;45483;-61
2022/08/24 02:03:46;;;;;;;;;4.00;4.00;;;;;24.39;56.57;100859.53;5064186;28;45486;-63
2022/08/24 02:06:17;;;;;;;;;5.00;3.75;;;;;24.39;56.45;100859.53;5047311;28;45522;-59
2022/08/24 02:08:46;;;;;;;;;2.25;2.25;;;;;24.36;56.80;100851.75;5030600;28;45512;-62
2022/08/24 02:11:26;;;;;;;;;3.00;3.00;;;;;24.35;56.77;100850.06;5024138;28;45435;-62
2022/08/24 02:14:00;;;;;;;;;4.20;3.20;;;;;24.29;56.84;100858.66;5059315;28;45533;-64
2022/08/24 02:16:38;;;;;;;;;4.00;3.75;;;;;24.28;57.23;100857.81;5059011;28;45553;-62
2022/08/24 02:19:12;;;;;;;;;4.25;4.25;;;;;24.27;57.04;100856.13;5060233;28;45653;-62
2022/08/24 02:22:06;;;;;;;;;3.25;3.25;;;;;24.28;57.00;100856.97;5045225;28;45584;-64
2022/08/24 02:24:35;;;;;;;;;3.00;3.00;;;;;24.28;56.91;100855.13;5059187;28;45495;-63
2022/08/24 02:27:23;;;;;;;;;4.75;3.00;;;;;24.27;57.17;100853.44;5059151;28;45633;-60
2022/08/24 02:30:00;;;;;;;;;3.00;3.00;;;;;24.25;57.18;100853.56;5045487;28;45534;-64
2022/08/24 02:32:30;;;;;;;;;3.00;3.00;;;;;24.25;56.88;100858.91;5057770;28;45596;-64
2022/08/24 02:35:04;;;;;;;;;4.00;2.20;;;;;24.24;56.82;100856.38;5025312;28;45476;-65
2022/08/24 02:37:30;;;;;;;;;3.00;3.00;;;;;24.24;56.96;100851.84;5060920;28;45644;-63
2022/08/24 02:40:00;;;;;;;;;2.25;2.25;;;;;24.21;57.09;100849.44;5058489;28;45612;-63
2022/08/24 02:42:30;;;;;;;;;4.00;4.00;;;;;24.20;57.05;100846.88;5059259;28;45403;-63
2022/08/24 02:45:04;;;;;;;;;4.00;4.00;;;;;24.18;57.16;100851.53;5058561;28;45545;-64
2022/08/24 02:47:55;;;;;;;;;3.25;2.50;;;;;24.18;57.29;100851.53;5058562;28;45539;-63
2022/08/24 02:50:26;;;;;;;;;3.50;3.50;;;;;24.17;57.28;100849.84;5058442;28;45510;-62
2022/08/24 02:52:56;;;;;;;;;3.00;3.00;;;;;24.18;57.11;100856.91;5042484;28;45428;-63
2022/08/24 02:55:27;;;;;;;;;2.60;2.60;;;;;24.14;57.45;100850.13;5058346;28;45553;-63
2022/08/24 02:57:57;;;;;;;;;3.00;3.00;;;;;24.15;57.06;100857.19;5059172;28;45506;-63
2022/08/24 03:00:27;;;;;;;;;2.00;2.00;;;;;24.14;57.15;100863.56;5024822;28;45583;-63
2022/08/24 03:03:06;;;;;;;;;2.00;2.00;;;;;24.15;57.15;100855.38;5042126;28;46286;-64
2022/08/24 03:05:40;;;;;;;;;3.20;2.40;;;;;24.10;57.25;100856.75;5041912;28;45462;-61
2022/08/24 03:08:31;;;;;;;;;3.50;3.50;;;;;24.08;57.21;100850.69;5056802;28;45545;-63
2022/08/24 03:10:59;;;;;;;;;2.25;2.25;;;;;24.06;57.20;100850.81;5059120;28;45587;-63
2022/08/24 03:13:29;;;;;;;;;3.75;3.75;;;;;24.07;57.18;100849.81;5061188;28;46313;-62
2022/08/24 03:16:00;;;;;;;;;2.00;2.00;;;;;24.10;57.52;100848.69;5045039;28;45512;-61
2022/08/24 03:18:48;;;;;;;;;3.00;3.00;;;;;24.09;57.04;100852.38;5044228;28;45434;-63
2022/08/24 03:21:18;;;;;;;;;3.50;3.50;;;;;24.10;57.33;100848.69;5059996;28;45434;-62
2022/08/24 03:24:03;;;;;;;;;3.00;3.00;;;;;24.11;57.22;100853.09;5076902;28;45529;-63
2022/08/24 03:26:38;;;;;;;;;3.00;3.00;;;;;24.08;57.41;100856.06;5025781;28;45643;-64
2022/08/24 03:29:12;;;;;;;;;3.00;3.00;;;;;24.08;57.32;100848.00;5027443;28;45597;-64
2022/08/24 03:31:41;;;;;;;;;3.00;3.00;;;;;24.08;57.61;100846.16;5045733;28;45483;-62
2022/08/24 03:34:15;;;;;;;;;3.00;3.00;;;;;24.07;57.62;100843.59;5077375;28;45525;-61
2022/08/24 03:37:00;;;;;;;;;5.60;5.00;;;;;24.07;57.48;100843.59;5077842;28;45379;-62
2022/08/24 03:39:29;;;;;;;;;4.25;4.25;;;;;24.07;57.57;100843.59;5029342;28;45469;-64
2022/08/24 03:42:02;;;;;;;;;4.00;4.00;;;;;24.07;57.73;100847.13;5079170;28;45587;-62
2022/08/24 03:44:41;;;;;;;;;5.00;4.75;;;;;24.07;57.57;100849.81;5076146;28;46546;-62
2022/08/24 03:47:12;;;;;;;;;6.25;6.25;;;;;24.06;57.61;100841.91;5059956;28;45540;-63
2022/08/24 03:49:49;;;;;;;;;5.00;5.00;;;;;24.00;57.77;100841.44;5061260;28;45514;-64
2022/08/24 03:52:23;;;;;;;;;4.25;4.25;;;;;23.93;58.19;100840.28;5015532;28;45434;-62
2022/08/24 03:54:56;;;;;;;;;4.50;4.50;;;;;23.92;57.90;100835.06;5048185;28;45591;-64
2022/08/24 03:57:47;;;;;;;;;6.25;6.25;;;;;23.93;57.85;100842.97;5048169;28;45633;-62
2022/08/24 04:00:16;;;;;;;;;7.00;5.50;;;;;23.94;57.86;100839.31;5046836;28;45490;-62
2022/08/24 04:02:44;;;;;;;;;7.00;5.75;;;;;23.94;57.83;100839.31;5064904;28;45549;-62
2022/08/24 04:05:12;;;;;;;;;3.50;3.50;;;;;23.91;58.16;100834.22;5013334;28;46317;-62
2022/08/24 04:07:45;;;;;;;;;7.75;5.25;;;;;23.91;58.15;100834.22;5064155;28;45464;-62
2022/08/24 04:10:34;;;;;;;;;5.25;5.25;;;;;23.91;58.08;100841.38;5064508;28;45502;-63
2022/08/24 04:13:25;;;;;;;;;6.00;5.25;;;;;23.92;58.10;100832.38;5060819;28;45515;-61
2022/08/24 04:15:56;;;;;;;;;5.75;5.75;;;;;23.91;58.04;100833.34;5060308;28;45580;-60
2022/08/24 04:18:27;;;;;;;;;4.25;4.25;;;;;23.90;58.02;100837.00;5060086;28;45582;-63
2022/08/24 04:21:06;;;;;;;;;8.00;6.75;;;;;23.91;57.79;100833.34;5059898;28;45465;-61
2022/08/24 04:23:50;;;;;;;;;6.25;6.25;;;;;23.88;57.85;100837.13;5043120;28;45522;-63
2022/08/24 04:26:26;;;;;;;;;7.00;6.00;;;;;23.88;58.07;100838.97;5060826;28;45623;-61
2022/08/24 04:28:57;;;;;;;;;5.00;5.00;;;;;23.86;58.03;100835.56;5059914;28;45544;-61
2022/08/24 04:31:55;;;;;;;;;4.50;4.50;;;;;23.81;58.40;100846.75;5062086;28;45592;-62
2022/08/24 04:34:43;;;;;;;;;7.00;7.00;;;;;23.79;58.33;100843.31;5061097;28;45502;-63
2022/08/24 04:37:19;;;;;;;;;6.00;6.00;;;;;23.80;58.38;100845.00;5043970;28;47142;-62
2022/08/24 04:39:48;;;;;;;;;7.00;7.00;;;;;23.81;58.45;100839.53;5059291;28;45390;-61
2022/08/24 04:42:19;;;;;;;;;4.25;4.25;;;;;23.77;58.65;100839.91;5060001;28;45481;-61
2022/08/24 04:44:50;;;;;;;;;6.50;6.50;;;;;23.77;58.42;100837.22;5061885;28;45457;-63
2022/08/24 04:47:44;;;;;;;;;6.00;6.00;;;;;23.75;58.55;100832.00;5058890;28;45549;-61
2022/08/24 04:50:14;;;;;;;;;7.00;7.00;;;;;23.77;58.80;100831.84;5011894;28;45520;-63
2022/08/24 04:55:34;;;;;;;;;4.50;4.50;;;;;23.77;58.77;100830.00;5061485;28;45524;-61
2022/08/24 04:58:10;;;;;;;;;5.50;5.50;;;;;23.72;58.33;100831.41;5059227;28;46139;-63
2022/08/24 05:00:40;;;;;;;;;5.50;5.50;;;;;23.71;58.63;100827.88;5059705;28;45489;-62
2022/08/24 05:03:28;;;;;;;;;5.50;5.50;;;;;23.69;58.87;100835.19;5058213;28;45453;-64
2022/08/24 05:05:57;;;;;;;;;7.00;7.00;;;;;23.71;58.51;100837.75;5060470;28;45485;-63
2022/08/24 05:08:34;;;;;;;;;9.25;7.00;;;;;23.72;58.63;100842.16;5059744;28;46415;-62
2022/08/24 05:11:07;;;;;;;;;5.00;5.00;;;;;23.71;58.91;100833.25;5028536;28;45576;-61
2022/08/24 05:13:41;;;;;;;;;6.25;6.25;;;;;23.69;58.61;100840.53;5045904;28;45527;-61
2022/08/24 05:16:13;;;;;;;;;5.25;5.25;;;;;23.66;58.83;100840.81;5013165;28;45672;-61
2022/08/24 05:19:03;;;;;;;;;7.50;7.50;;;;;23.68;59.08;100844.22;5028717;28;46534;-63
2022/08/24 05:21:33;;;;;;;;;7.50;7.00;;;;;23.69;58.94;100837.00;5034280;28;45574;-63
2022/08/24 05:24:04;;;;;;;;;7.75;6.50;;;;;23.69;58.94;100834.34;5046498;28;45491;-63
2022/08/24 05:26:55;;;;;;;;;6.75;6.75;;;;;23.69;58.93;100845.06;5063096;28;45427;-61
2022/08/24 05:29:33;;;;;;;;;10.75;9.50;;;;;23.68;59.15;100848.75;5058072;28;46131;-61
2022/08/24 05:32:03;;;;;;;;;9.00;7.75;;;;;23.64;59.18;100850.00;5063354;28;46285;-63
2022/08/24 05:37:42;;;;;;;;;8.25;8.25;;;;;23.69;58.93;100850.44;5081552;28;45352;-62
2022/08/24 05:40:14;;;;;;;;;7.00;7.00;;;;;23.71;59.06;100853.84;5029268;28;47734;-61
2022/08/24 05:42:47;;;;;;;;;8.50;7.25;;;;;23.69;58.89;100850.44;5062410;28;45464;-63
2022/08/24 05:45:31;;;;;;;;;8.00;7.75;;;;;23.69;58.67;100850.44;5074496;28;45504;-62
2022/08/24 05:47:59;;;;;;;;;9.25;6.00;;;;;23.72;58.79;100851.09;5027482;28;45488;-62
2022/08/24 05:50:25;;;;;;;;;8.25;8.00;;;;;23.75;58.79;100852.63;5061491;28;46252;-61
2022/08/24 05:52:59;;;;;;;;;8.50;8.50;;;;;23.75;59.01;100853.50;5080739;28;45570;-62
2022/08/24 05:55:46;;;;;;;;;7.50;7.00;;;;;23.74;58.98;100856.31;5045004;28;45436;-62
2022/08/24 05:58:22;;;;;;;;;8.00;8.00;;;;;23.76;58.61;100851.66;5044848;28;45530;-63
2022/08/24 06:00:51;;;;;;;;;8.50;8.50;;;;;23.77;58.94;100858.72;5062488;28;47049;-61
2022/08/24 06:03:21;;;;;;;;;8.00;8.00;;;;;23.74;58.71;100856.31;5062179;28;45566;-63
2022/08/24 06:05:53;;;;;;;;;7.25;7.25;;;;;23.75;58.97;100860.69;5028650;28;45620;-61
2022/08/24 06:08:25;;;;;;;;;7.50;7.50;;;;;23.76;58.49;100859.72;5062737;28;45625;-61
2022/08/24 06:11:01;;;;;;;;;7.00;6.00;;;;;23.77;58.50;100858.72;5062124;28;46313;-63
2022/08/24 06:13:50;;;;;;;;;7.50;7.50;;;;;23.78;58.77;100860.44;5079569;28;45466;-61
2022/08/24 06:16:23;;;;;;;;;8.25;6.00;;;;;23.79;58.30;100862.13;5062189;28;45529;-64
2022/08/24 06:19:17;;;;;;;;;10.75;9.00;;;;;23.79;58.61;100859.44;5012086;28;45484;-61
2022/08/24 06:21:45;;;;;;;;;10.00;10.00;;;;;23.81;58.65;100858.31;5061605;28;46986;-63
2022/08/24 06:27:21;;;;;;;;;8.75;8.75;;;;;23.86;57.56;100863.31;4992691;28;45495;-61
2022/08/24 06:30:08;;;;;;;;;7.00;7.00;;;;;23.87;57.56;100870.38;5079119;28;45621;-63
2022/08/24 06:32:49;;;;;;;;;6.25;5.50;;;;;23.88;57.38;100866.69;5061689;28;46323;-63
2022/08/24 06:35:15;;;;;;;;;6.75;5.50;;;;;23.91;57.58;100866.44;5011495;28;45579;-63
2022/08/24 06:37:44;;;;;;;;;5.00;5.00;;;;;23.90;57.10;100869.25;5080248;28;45461;-62
2022/08/24 06:40:19;;;;;;;;;6.25;5.50;;;;;23.90;57.46;100869.25;5061780;28;45525;-61
2022/08/24 06:43:06;;;;;;;;;6.00;6.00;;;;;23.92;57.64;100864.59;5061696;28;47455;-62
2022/08/24 06:45:39;;;;;;;;;6.50;6.50;;;;;23.94;56.91;100865.31;5061321;28;45505;-60
2022/08/24 06:48:17;;;;;;;;;5.00;5.00;;;;;23.94;57.06;100858.13;5061488;28;45542;-63
2022/08/24 06:50:56;;;;;;;;;5.75;5.75;;;;;23.98;56.69;100861.38;5061371;28;45494;-61
2022/08/24 06:53:30;;;;;;;;;5.00;5.00;;;;;23.97;56.58;100857.84;4994625;28;45585;-61
2022/08/24 06:56:04;;;;;;;;;5.50;5.00;;;;;23.99;56.44;100860.38;5061588;28;45456;-63
2022/08/24 06:58:55;;;;;;;;;6.25;5.00;;;;;24.02;56.54;100866.34;5060833;28;45524;-61
2022/08/24 07:01:31;;;;;;;;;5.50;5.50;;;;;24.06;56.35;100858.84;5043776;28;45487;-61
2022/08/24 07:04:07;;;;;;;;;5.00;5.00;;;;;24.07;56.35;100865.06;5026590;28;46410;-62
2022/08/24 07:06:37;;;;;;;;;3.50;3.50;;;;;24.07;56.13;100859.69;5060425;28;45486;-61
2022/08/24 07:09:09;;;;;;;;;4.50;4.50;;;;;24.10;56.34;100859.44;5079699;28;45502;-61
2022/08/24 07:11:39;;;;;;;;;5.25;5.25;;;;;24.12;55.98;100860.16;5058303;28;45533;-63
2022/08/24 07:14:17;;;;;;;;;5.00;5.00;;;;;24.14;55.90;100867.09;5057837;28;45490;-63
2022/08/24 07:16:45;;;;;;;;;5.00;3.75;;;;;24.19;55.85;100858.63;5058168;28;45540;-63
2022/08/24 07:19:20;;;;;;;;;6.00;6.00;;;;;24.22;55.73;100858.34;5057729;28;45531;-61
2022/08/24 07:21:52;;;;;;;;;6.75;5.00;;;;;24.24;55.96;100865.28;5055501;28;45371;-62
2022/08/24 07:24:22;;;;;;;;;5.75;4.25;;;;;24.28;55.96;100863.19;5057502;28;45471;-62
2022/08/24 07:26:56;;;;;;;;;12.50;12.50;;;;;24.30;55.73;100868.44;5057273;28;45465;-62
2022/08/24 07:29:30;;;;;;;;;5.00;4.25;;;;;24.33;55.72;100873.53;5056781;28;45483;-61
2022/08/24 07:32:00;;;;;;;;;6.00;6.00;;;;;24.37;55.50;100873.13;5057334;28;45461;-62
2022/08/24 07:34:54;;;;;;;;;42.00;35.33;;;;;24.40;55.31;100874.69;5058720;28;45520;-61
2022/08/24 07:37:31;;;;;;;;;7.50;7.50;;;;;24.42;55.30;100875.38;5024691;28;45566;-62
2022/08/24 07:39:56;;;;;;;;;7.00;6.75;;;;;24.44;55.21;100871.59;5057770;28;45455;-61
2022/08/24 07:42:34;;;;;;;;;8.75;7.75;;;;;24.47;55.36;100878.53;5057882;28;45389;-61
2022/08/24 07:45:03;;;;;;;;;6.25;6.25;;;;;24.52;55.12;100880.84;5056182;28;46644;-61
2022/08/24 07:47:37;;;;;;;;;6.40;6.40;;;;;24.56;55.30;100884.97;5057198;28;45606;-63
2022/08/24 07:50:05;;;;;;;;;5.75;4.50;;;;;24.55;55.14;100881.41;5039369;28;45628;-63
2022/08/24 07:52:39;;;;;;;;;7.75;6.00;;;;;24.60;55.42;100881.00;5058324;28;45631;-64
2022/08/24 07:55:17;;;;;;;;;4.75;4.00;;;;;24.62;55.02;100887.09;5057343;28;46226;-63
2022/08/24 07:57:46;;;;;;;;;4.00;4.00;;;;;24.66;54.70;100884.00;5057552;28;45646;-63
2022/08/24 08:00:16;;;;;;;;;5.25;4.50;;;;;24.71;54.68;100885.41;5057885;28;45566;-63
2022/08/24 08:02:46;;;;;;;;;33.67;30.00;;;;;24.74;54.65;100885.97;5057523;28;45373;-62
2022/08/24 08:05:21;;;;;;;;;52.33;40.33;;;;;24.78;54.39;100886.56;5058695;28;45568;-61
2022/08/24 08:10:48;;;;;;;;;4.50;3.75;;;;;24.83;53.84;100897.75;5058514;28;45569;-63
2022/08/24 08:13:19;;;;;;;;;4.00;4.00;;;;;24.88;53.45;100901.72;5039206;28;45443;-63
2022/08/24 08:15:55;;;;;;;;;3.75;3.75;;;;;24.90;53.56;100902.44;5055969;28;46402;-62
2022/08/24 08:18:50;;;;;;;;;9.75;9.75;;;;;24.94;53.38;100904.84;5073001;28;46210;-61
2022/08/24 08:24:19;;;;;;;;;8.75;6.25;;;;;25.06;53.16;100906.41;5056679;28;45522;-63
2022/08/24 08:27:15;;;;;;;;;5.50;5.50;;;;;25.11;52.84;100906.81;5039208;28;47007;-62
2022/08/24 08:29:44;;;;;;;;;6.00;6.00;;;;;25.16;52.35;100909.97;5056471;28;45504;-63
2022/08/24 08:32:19;;;;;;;;;7.50;5.75;;;;;25.19;51.82;100911.53;5058106;28;45512;-60
2022/08/24 08:35:09;;;;;;;;;6.50;6.50;;;;;25.23;52.01;100907.59;5039600;28;45549;-62
2022/08/24 08:37:36;;;;;;;;;5.00;5.00;;;;;25.28;52.16;100906.16;5058065;28;47789;-61
2022/08/24 08:40:11;;;;;;;;;6.50;6.50;;;;;25.30;52.45;100906.84;5059875;28;45460;-61
2022/08/24 08:43:33;;;;;;;;;4.50;4.50;;;;;25.34;51.59;100910.13;5060443;28;45484;-62
2022/08/24 08:46:39;;;;;;;;;2.50;2.50;;;;;25.40;51.38;100906.03;5005902;28;45448;-61
2022/08/24 08:49:50;;;;;;;;;3.00;2.25;;;;;25.44;50.33;100900.22;5021440;28;46518;-62
2022/08/24 08:52:52;;;;;;;;;4.60;3.00;;;;;25.46;50.37;100897.34;5021002;28;45599;-62
2022/08/24 08:59:07;;;;;;;;;5.50;5.50;;;;;25.55;50.27;100901.91;5037634;28;45667;-63
2022/08/24 09:02:14;;;;;;;;;2.25;2.25;;;;;25.60;49.96;100904.13;5021720;28;45546;-63
2022/08/24 09:05:29;;;;;;;;;2.60;2.60;;;;;25.62;49.81;100900.31;5021942;28;45625;-64
2022/08/24 09:08:36;;;;;;;;;2.20;2.00;;;;;25.67;49.66;100899.88;5021603;28;45552;-62
2022/08/24 09:11:50;;;;;;;;;3.00;3.00;;;;;25.71;49.40;100899.47;5020571;28;45473;-62
2022/08/24 09:14:53;;;;;;;;;3.00;3.00;;;;;25.75;49.29;100898.16;5003210;28;46317;-62
2022/08/24 09:17:58;;;;;;;;;2.00;2.00;;;;;25.77;48.30;100892.63;5001210;28;45501;-63
2022/08/24 09:21:03;;;;;;;;;1.20;1.20;;;;;25.77;48.33;100901.56;5018408;28;45531;-62
2022/08/24 09:23:43;;;;;;;;;2.75;2.75;;;;;25.79;48.68;100902.28;5001439;28;45435;-63
2022/08/24 09:26:32;;;;;;;;;4.40;4.40;;;;;25.80;48.58;100900.41;5018137;28;46383;-63
2022/08/24 09:29:55;;;;;;;;;3.40;3.40;;;;;25.82;47.97;100898.44;5001835;28;45631;-63
2022/08/24 09:32:59;;;;;;;;;3.40;2.00;;;;;25.88;47.51;100903.28;4962636;28;45518;-63
2022/08/24 09:35:53;;;;;;;;;3.00;2.75;;;;;25.90;47.90;100900.41;4978719;28;45455;-61
2022/08/24 09:38:59;;;;;;;;;2.20;2.20;;;;;25.94;47.82;100908.06;4977508;28;46458;-63
2022/08/24 09:42:07;;;;;;;;;4.00;4.00;;;;;25.95;47.76;100898.13;4977053;28;45364;-62
2022/08/24 09:45:17;;;;;;;;;0.80;0.80;;;;;26.05;47.23;100904.34;4998848;28;45583;-63
2022/08/24 09:48:31;;;;;;;;;1.00;1.00;;;;;26.14;47.28;100908.00;4997228;28;45549;-63
2022/08/24 09:51:40;;;;;;;;;1.80;1.80;;;;;26.19;46.90;100906.56;4981425;28;45499;-62
2022/08/24 09:55:11;;;;;;;;;1.00;1.00;;;;;26.22;46.55;100900.00;4981280;28;45483;-63
2022/08/24 09:58:16;;;;;;;;;1.20;1.20;;;;;26.26;46.84;100895.19;4984852;28;45501;-63
2022/08/24 10:01:15;;;;;;;;;2.20;2.20;;;;;26.30;46.14;100899.28;5017794;28;45682;-61
2022/08/24 10:04:23;;;;;;;;;1.80;1.80;;;;;26.33;46.19;100891.75;5000789;28;47145;-63
2022/08/24 10:07:28;;;;;;;;;4.00;2.00;;;;;26.36;45.88;100891.44;5017147;28;45599;-63
2022/08/24 10:10:18;;;;;;;;;1.00;1.00;;;;;26.39;45.57;100887.59;5000802;28;45541;-63
2022/08/24 10:13:03;;;;;;;;;0.80;0.80;;;;;26.42;45.86;100893.53;5000396;28;45592;-61
2022/08/24 10:16:16;;;;;;;;;2.00;2.00;;;;;26.48;45.84;100884.00;5000260;28;45475;-61
2022/08/24 10:19:34;;;;;;;;;1.00;1.00;;;;;26.50;46.08;100882.00;5016363;28;45522;-62
2022/08/24 10:22:48;;;;;;;;;1.00;1.00;;;;;26.52;45.13;100879.16;5001512;28;45441;-62
2022/08/24 10:25:58;;;;;;;;;1.00;1.00;;;;;26.56;45.65;100875.19;4980947;28;45534;-62
2022/08/24 10:29:02;;;;;;;;;0.40;0.40;;;;;26.57;44.42;100872.34;4981144;28;45577;-63
2022/08/24 10:32:06;;;;;;;;;0.80;0.80;;;;;26.59;44.97;100875.72;5024718;28;45548;-64
2022/08/24 10:35:04;;;;;;;;;4.00;4.00;;;;;26.63;45.03;100874.44;5057220;28;45496;-64
2022/08/24 10:41:10;;;;;;;;;3.20;3.20;;;;;26.73;45.08;100862.72;5058120;28;45486;-64
2022/08/24 10:44:29;;;;;;;;;4.00;4.00;;;;;26.75;45.36;100863.41;5057965;28;45509;-63
2022/08/24 10:47:15;;;;;;;;;2.40;2.40;;;;;26.76;45.36;100863.28;5038117;28;45634;-62
2022/08/24 10:50:20;;;;;;;;;1.40;0.80;;;;;26.80;44.83;100866.50;5056392;28;45405;-63
2022/08/24 10:53:30;;;;;;;;;1.40;1.40;;;;;26.85;44.71;100864.19;5056313;28;46271;-62
2022/08/24 10:56:40;;;;;;;;;1.20;1.00;;;;;26.87;45.45;100863.03;5056549;28;45696;-62
2022/08/24 11:00:01;;;;;;;;;2.00;2.00;;;;;26.90;45.62;100861.88;5017617;28;45565;-62
2022/08/24 11:02:32;;;;;;;;;1.20;1.20;;;;;26.96;44.87;100866.66;4999070;28;45420;-62
2022/08/24 11:05:08;;;;;;;;;1.40;1.40;;;;;27.00;44.01;100853.69;5071536;28;48391;-61
2022/08/24 11:07:56;;;;;;;;;3.80;3.80;;;;;27.06;44.33;100847.69;5057653;28;45509;-61
2022/08/24 11:10:25;;;;;;;;;5.60;5.60;;;;;27.13;44.16;100850.59;5041773;28;45531;-63
2022/08/24 11:13:39;;;;;;;;;1.80;1.80;;;;;27.13;44.53;100839.81;5072986;28;45457;-62
2022/08/24 11:16:12;;;;;;;;;2.80;2.80;;;;;27.11;44.44;100831.88;5041253;28;45609;-62
2022/08/24 11:19:02;;;;;;;;;2.00;2.00;;;;;27.12;44.13;100832.72;5051624;28;45438;-63
2022/08/24 11:21:54;;;;;;;;;3.00;3.00;;;;;27.17;44.54;100833.13;5058681;28;45574;-64
2022/08/24 11:24:44;;;;;;;;;10.25;10.00;;;;;27.22;44.57;100828.97;5058930;28;45600;-61
2022/08/24 11:27:37;;;;;;;;;1.80;1.00;;;;;27.26;44.38;100832.19;5040743;28;46462;-62
2022/08/24 11:33:02;;;;;;;;;2.00;2.00;;;;;27.29;44.11;100816.50;5077521;28;45469;-64
2022/08/24 11:35:52;;;;;;;;;4.00;4.00;;;;;27.31;43.59;100816.34;5059442;28;45546;-62
2022/08/24 11:38:46;;;;;;;;;1.80;1.80;;;;;27.35;43.67;100814.16;5056908;28;45543;-64
2022/08/24 11:41:52;;;;;;;;;5.20;5.20;;;;;27.41;43.89;100810.88;5041755;28;45423;-64
2022/08/24 11:48:19;;;;;;;;;4.20;4.20;;;;;27.59;43.29;100802.69;5078001;28;45420;-61
2022/08/24 11:54:56;;;;;;;;;13.60;12.80;;;;;27.73;43.49;100796.69;4975589;28;45470;-63
2022/08/24 11:57:57;;;;;;;;;4.00;3.00;;;;;27.80;43.11;100788.78;4970994;28;45683;-64
2022/08/24 12:00:33;;;;;;;;;3.40;2.40;;;;;27.89;41.83;100788.69;4973159;28;45650;-62
2022/08/24 12:03:57;;;;;;;;;1.00;1.00;;;;;28.00;42.17;100795.66;4992530;28;45620;-62
2022/08/24 12:07:01;;;;;;;;;3.60;3.60;;;;;28.09;41.09;100801.94;4958864;28;45389;-62
2022/08/24 12:10:12;;;;;;;;;1.60;1.60;;;;;28.10;40.58;100790.09;4965016;28;45461;-63
2022/08/24 12:13:16;;;;;;;;;1.00;1.00;;;;;28.15;40.75;100785.91;4961394;28;45671;-62
2022/08/24 12:16:12;;;;;;;;;3.00;3.00;;;;;28.21;40.26;100784.44;4945718;28;45574;-64
2022/08/24 12:19:03;;;;;;;;;9.40;9.40;;;;;28.44;39.94;100783.81;4979153;28;45432;-63
2022/08/24 12:21:51;;;;;;;;;3.60;2.40;;;;;28.56;39.70;100788.75;4963272;28;45476;-62
2022/08/24 12:24:57;;;;;;;;;5.80;4.60;;;;;28.65;39.46;100795.03;4963250;28;45515;-63
2022/08/24 12:27:38;;;;;;;;;1.00;1.00;;;;;28.67;39.54;100787.59;4992691;28;46077;-62
2022/08/24 12:30:22;;;;;;;;;2.20;2.20;;;;;28.79;39.37;100783.50;4996959;28;45671;-63
2022/08/24 12:33:15;;;;;;;;;4.00;4.00;;;;;28.96;38.75;100787.09;4985787;28;45560;-62
2022/08/24 12:35:56;;;;;;;;;2.00;2.00;;;;;29.11;38.46;100783.72;4985849;28;45468;-64
2022/08/24 12:38:45;;;;;;;;;3.40;3.40;;;;;29.22;38.24;100778.78;5002419;28;45609;-64
2022/08/24 12:45:00;;;;;;;;;0.40;0.40;;;;;29.41;38.09;100774.84;4971482;28;45521;-64
2022/08/24 12:48:10;;;;;;;;;1.00;1.00;;;;;29.52;37.63;100771.78;4995712;28;44902;-63
2022/08/24 12:51:15;;;;;;;;;1.00;1.00;;;;;29.70;37.64;100774.31;5063475;28;46646;-62
2022/08/24 12:54:18;;;;;;;;;2.00;2.00;;;;;29.86;37.57;100773.41;5062568;28;45418;-64
2022/08/24 12:57:21;;;;;;;;;2.80;2.60;;;;;30.01;37.07;100765.38;5080848;28;45568;-64
2022/08/24 12:59:52;;;;;;;;;1.60;1.60;;;;;30.15;36.58;100764.59;5044862;28;45488;-63
2022/08/24 13:02:46;;;;;;;;;1.00;1.00;;;;;30.24;36.84;100768.16;5081491;28;45516;-64
2022/08/24 13:05:21;;;;;;;;;2.20;1.00;;;;;30.26;36.36;100757.13;5045195;28;45551;-64
2022/08/24 13:07:57;;;;;;;;;0.40;0.40;;;;;30.33;36.64;100764.38;5061962;28;45419;-64
2022/08/24 13:10:43;;;;;;;;;1.20;0.80;;;;;30.39;35.87;100762.81;5046501;28;45518;-62
2022/08/24 13:13:39;;;;;;;;;1.00;1.00;;;;;30.46;36.26;100762.91;5059008;28;45471;-63
2022/08/24 13:16:14;;;;;;;;;1.00;1.00;;;;;30.45;36.88;100762.09;5027887;28;45568;-62